Time;durP1;ratioP1;P1;durP2;ratioP2;P2;SDS_P1;SDS_P2;PMS_P1;PMS_P2;Temp;Humidity;BMP_temperature;BMP_pressure;BME280_temperature;BME280_humidity;BME280_pressure;Samples;Min_cycle;Max_cycle;Signal;HPM_P1;HPM_P2
2024/01/02 00:00:06;;;;;;;12.03;3.63;;;5.30;99.90;;;4.24;100.00;99825.94;5053683;28;20289;-71
2024/01/02 00:02:34;;;;;;;11.13;3.60;;;5.10;99.90;;;4.24;100.00;99818.00;5053581;28;20206;-71
2024/01/02 00:05:03;;;;;;;16.93;4.00;;;5.10;99.90;;;4.23;100.00;99808.38;5053256;28;20210;-71
2024/01/02 00:07:31;;;;;;;15.20;3.90;;;5.10;99.90;;;4.21;100.00;99805.03;5053499;28;20641;-71
2024/01/02 00:09:59;;;;;;;12.20;3.80;;;5.10;99.90;;;4.19;100.00;99801.69;5053435;28;20301;-71
2024/01/02 00:12:28;;;;;;;11.93;3.77;;;5.10;99.90;;;4.17;100.00;99798.34;5053168;28;20238;-74
2024/01/02 00:14:57;;;;;;;14.50;4.03;;;5.20;99.90;;;4.18;100.00;99797.34;5053450;28;20249;-74
2024/01/02 00:17:25;;;;;;;16.57;3.77;;;5.10;99.90;;;4.18;100.00;99789.41;5052240;28;20641;-74
2024/01/02 00:19:53;;;;;;;16.07;4.20;;;5.10;99.90;;;4.17;100.00;99786.91;5053390;28;20206;-74
2024/01/02 00:22:21;;;;;;;12.27;3.87;;;5.10;99.90;;;4.16;100.00;99786.06;5053294;28;20260;-74
2024/01/02 00:24:50;;;;;;;11.90;3.20;;;5.10;99.90;;;4.12;100.00;99778.53;5053317;28;20212;-74
2024/01/02 00:27:18;;;;;;;16.00;3.70;;;5.00;99.90;;;4.10;100.00;99781.34;5053290;28;20260;-74
2024/01/02 00:29:46;;;;;;;12.40;3.50;;;5.10;99.90;;;4.09;100.00;99775.22;5053480;28;20298;-74
2024/01/02 00:32:15;;;;;;;17.03;3.60;;;5.00;99.90;;;4.06;100.00;99772.00;5053158;28;20313;-74
2024/01/02 00:34:44;;;;;;;9.27;3.10;;;5.00;99.90;;;4.06;100.00;99764.06;5053360;28;20210;-74
2024/01/02 00:37:12;;;;;;;12.17;3.57;;;5.00;99.90;;;4.04;100.00;99768.69;5053131;28;20202;-74
2024/01/02 00:39:40;;;;;;;16.40;3.60;;;5.00;99.90;;;3.99;100.00;99757.66;5052863;28;20304;-74
2024/01/02 00:42:08;;;;;;;12.73;3.13;;;4.90;99.90;;;4.00;100.00;99754.88;5052888;28;20742;-75
2024/01/02 00:44:38;;;;;;;13.57;3.80;;;5.00;99.90;;;4.02;100.00;99750.28;5053200;28;20206;-74
2024/01/02 00:47:07;;;;;;;14.23;3.13;;;4.90;99.90;;;4.02;100.00;99752.91;5053216;28;20206;-74
2024/01/02 00:49:37;;;;;;;12.40;3.70;;;5.00;99.90;;;4.02;100.00;99746.78;5053181;28;20252;-75
2024/01/02 00:52:06;;;;;;;13.83;3.97;;;5.00;99.90;;;4.03;100.00;99748.47;5052947;28;20317;-75
2024/01/02 00:54:34;;;;;;;10.87;3.23;;;4.90;99.90;;;4.03;100.00;99738.72;5053045;28;20202;-75
2024/01/02 00:57:02;;;;;;;16.43;3.77;;;5.00;99.90;;;4.02;100.00;99736.19;5052605;28;20241;-74
2024/01/02 00:59:30;;;;;;;16.73;3.80;;;5.00;99.90;;;4.02;100.00;99730.91;5052992;28;20690;-74
2024/01/02 01:01:58;;;;;;;9.83;3.30;;;5.10;99.90;;;4.01;100.00;99719.47;5052725;28;20202;-74
2024/01/02 01:04:27;;;;;;;15.20;3.43;;;5.00;99.90;;;4.02;100.00;99725.59;5052616;28;20213;-74
2024/01/02 01:06:57;;;;;;;12.17;3.30;;;5.00;99.90;;;4.00;100.00;99723.09;5053111;28;20296;-74
2024/01/02 01:09:25;;;;;;;12.40;3.20;;;5.00;99.90;;;3.99;100.00;99715.28;5053258;28;20233;-74
2024/01/02 01:11:53;;;;;;;9.80;3.30;;;5.00;99.90;;;4.01;100.00;99718.63;5052709;28;20703;-74
2024/01/02 01:14:21;;;;;;;18.03;3.53;;;5.00;99.90;;;4.01;100.00;99713.31;5053666;28;20213;-74
2024/01/02 01:16:50;;;;;;;9.87;3.60;;;5.00;99.90;;;4.01;100.00;99708.88;5052849;28;20256;-74
2024/01/02 01:19:18;;;;;;;12.37;3.47;;;5.00;99.90;;;4.00;100.00;99703.72;5052405;28;20567;-74
2024/01/02 01:21:46;;;;;;;17.17;3.70;;;5.00;99.90;;;4.00;100.00;99701.09;5053318;28;20216;-74
2024/01/02 01:24:16;;;;;;;17.63;3.63;;;5.00;99.90;;;4.01;100.00;99705.38;5053002;28;20208;-74
2024/01/02 01:26:44;;;;;;;11.03;3.10;;;5.00;99.90;;;4.00;100.00;99696.63;5052854;28;20301;-74
2024/01/02 01:29:13;;;;;;;14.13;3.17;;;5.00;99.90;;;4.00;100.00;99695.78;5053761;28;20257;-74
2024/01/02 01:31:42;;;;;;;9.47;3.07;;;4.90;99.90;;;3.99;100.00;99684.34;5056207;28;20232;-74
2024/01/02 01:34:10;;;;;;;11.77;2.90;;;5.00;99.90;;;4.00;100.00;99679.91;5056179;28;20324;-74
2024/01/02 01:36:38;;;;;;;12.37;3.10;;;5.00;99.90;;;4.01;100.00;99686.84;5055908;28;20577;-74
2024/01/02 01:39:06;;;;;;;12.03;3.00;;;5.00;99.90;;;3.99;100.00;99678.22;5056124;28;20222;-74
2024/01/02 01:41:36;;;;;;;13.13;3.23;;;5.00;99.90;;;4.01;100.00;99676.25;5056155;28;20204;-74
2024/01/02 01:44:04;;;;;;;13.23;3.40;;;5.00;99.90;;;4.00;100.00;99661.34;5056095;28;20206;-74
2024/01/02 01:46:37;;;;;;;11.93;3.47;;;5.00;99.90;;;3.98;100.00;99664.13;5055646;28;20694;-74
2024/01/02 01:49:09;;;;;;;10.47;3.27;;;5.00;99.90;;;4.01;100.00;99660.34;5055967;28;20229;-74
2024/01/02 01:51:41;;;;;;;11.07;3.43;;;5.10;99.90;;;4.00;100.00;99661.34;5055521;28;20284;-74
2024/01/02 01:54:12;;;;;;;11.17;4.00;;;5.00;99.90;;;4.01;100.00;99650.59;5055838;28;20214;-74
2024/01/02 01:56:44;;;;;;;15.33;3.57;;;5.00;99.90;;;4.00;100.00;99646.31;5056020;28;20202;-74
2024/01/02 01:59:15;;;;;;;16.87;3.10;;;5.00;99.90;;;4.01;100.00;99640.00;5055724;28;20237;-74
2024/01/02 02:01:45;;;;;;;12.27;3.13;;;5.00;99.90;;;4.02;100.00;99632.91;5055839;28;20186;-74
2024/01/02 02:04:16;;;;;;;10.77;3.47;;;5.00;99.90;;;4.04;100.00;99630.97;5055760;28;20214;-74
2024/01/02 02:06:44;;;;;;;16.67;3.63;;;5.10;99.90;;;4.06;100.00;99626.34;5055937;28;20202;-74
2024/01/02 02:09:13;;;;;;;10.40;2.70;;;5.10;99.90;;;4.07;100.00;99622.72;5055515;28;20316;-74
2024/01/02 02:11:44;;;;;;;14.80;3.07;;;5.10;99.90;;;4.07;100.00;99618.22;5055203;28;20719;-74
2024/01/02 02:14:12;;;;;;;14.83;4.07;;;5.10;99.90;;;4.10;100.00;99609.19;5055394;28;20644;-74
2024/01/02 02:16:43;;;;;;;11.60;3.30;;;5.10;99.90;;;4.11;100.00;99608.19;5055154;28;20573;-74
2024/01/02 02:19:11;;;;;;;10.63;3.43;;;5.10;99.90;;;4.14;100.00;99605.28;5055111;28;20234;-74
2024/01/02 02:21:39;;;;;;;10.10;2.83;;;5.20;99.90;;;4.14;100.00;99597.31;5055027;28;20555;-74
2024/01/02 02:24:09;;;;;;;11.77;2.87;;;5.20;99.90;;;4.15;100.00;99596.31;5055283;28;20305;-74
2024/01/02 02:26:37;;;;;;;14.70;3.57;;;5.20;99.90;;;4.15;100.00;99583.06;5054958;28;20659;-74
2024/01/02 02:29:05;;;;;;;12.60;2.90;;;5.20;99.90;;;4.17;100.00;99572.34;5055047;28;20596;-74
2024/01/02 02:31:36;;;;;;;16.87;3.37;;;5.20;99.90;;;4.17;100.00;99567.88;5055387;28;20206;-74
2024/01/02 02:34:04;;;;;;;16.23;3.63;;;5.20;99.90;;;4.18;100.00;99561.59;5055080;28;20238;-74
2024/01/02 02:36:32;;;;;;;12.47;3.40;;;5.20;99.90;;;4.20;100.00;99554.34;5055081;28;20268;-75
2024/01/02 02:39:00;;;;;;;13.27;3.90;;;5.20;99.90;;;4.20;100.00;99543.75;5054908;28;20227;-75
2024/01/02 02:41:30;;;;;;;11.00;3.33;;;5.30;99.90;;;4.21;100.00;99534.81;5054501;28;20206;-74
2024/01/02 02:43:58;;;;;;;11.67;3.00;;;5.30;99.90;;;4.22;100.00;99525.88;5055241;28;20206;-74
2024/01/02 02:46:26;;;;;;;14.77;3.27;;;5.30;99.90;;;4.23;100.00;99522.25;5054917;28;20230;-74
2024/01/02 02:48:54;;;;;;;9.77;3.10;;;5.30;99.90;;;4.23;100.00;99522.25;5054702;28;20261;-74
2024/01/02 02:51:24;;;;;;;14.77;3.80;;;5.30;99.90;;;4.23;100.00;99506.34;5054617;28;20246;-74
2024/01/02 02:53:52;;;;;;;11.27;3.23;;;5.40;99.90;;;4.24;100.00;99502.72;5054773;28;20277;-74
2024/01/02 02:56:20;;;;;;;13.63;3.53;;;5.30;99.90;;;4.23;100.00;99506.34;5054642;28;20296;-74
2024/01/02 02:58:50;;;;;;;14.13;3.20;;;5.30;99.90;;;4.24;100.00;99491.28;5054592;28;20226;-74
2024/01/02 03:01:22;;;;;;;10.37;3.37;;;5.30;99.90;;;4.24;100.00;99486.84;5054472;28;20646;-74
2024/01/02 03:03:52;;;;;;;13.33;3.97;;;5.30;99.90;;;4.22;100.00;99486.13;5054552;28;20201;-74
2024/01/02 03:06:20;;;;;;;10.73;3.37;;;5.30;99.90;;;4.24;100.00;99478.88;5054552;28;20296;-74
2024/01/02 03:08:49;;;;;;;16.07;3.80;;;5.30;99.90;;;4.25;100.00;99471.75;5054098;28;20729;-74
2024/01/02 03:11:18;;;;;;;11.13;3.43;;;5.30;99.90;;;4.25;100.00;99480.53;5054429;28;20237;-74
2024/01/02 03:13:47;;;;;;;9.20;3.23;;;5.30;99.90;;;4.26;100.00;99468.97;5054260;28;20287;-74
2024/01/02 03:16:17;;;;;;;15.33;3.53;;;5.30;99.90;;;4.28;100.00;99469.63;5054285;28;20237;-74
2024/01/02 03:18:45;;;;;;;19.80;3.57;;;5.30;99.90;;;4.30;100.00;99462.38;5054190;28;20309;-74
2024/01/02 03:21:13;;;;;;;9.43;3.07;;;5.40;99.90;;;4.32;100.00;99452.44;5054235;28;20210;-74
2024/01/02 03:23:42;;;;;;;12.17;3.33;;;5.40;99.90;;;4.33;100.00;99438.22;5054244;28;20241;-74
2024/01/02 03:26:14;;;;;;;11.20;3.63;;;5.40;99.90;;;4.36;100.00;99431.78;5054143;28;20285;-75
2024/01/02 03:28:43;;;;;;;14.20;3.50;;;5.40;99.90;;;4.38;100.00;99430.66;5054433;28;20221;-74
2024/01/02 03:31:12;;;;;;;12.73;3.13;;;5.40;99.90;;;4.40;100.00;99422.56;5053943;28;20755;-74
2024/01/02 03:33:42;;;;;;;12.87;3.57;;;5.50;99.90;;;4.40;100.00;99412.78;5054069;28;20325;-74
2024/01/02 03:36:13;;;;;;;11.60;2.90;;;5.50;99.90;;;4.43;100.00;99412.47;5053924;28;20210;-74
2024/01/02 03:38:41;;;;;;;7.80;2.70;;;5.50;99.90;;;4.44;100.00;99408.84;5053638;28;20226;-74
2024/01/02 03:41:09;;;;;;;12.17;2.73;;;5.50;99.90;;;4.47;100.00;99402.41;5053825;28;20224;-74
2024/01/02 03:43:38;;;;;;;11.70;3.00;;;5.60;99.90;;;4.48;100.00;99389.00;5053817;28;20205;-74
2024/01/02 03:46:06;;;;;;;26.10;4.20;;;5.60;99.90;;;4.50;100.00;99381.72;5053739;28;20206;-74
2024/01/02 03:48:34;;;;;;;11.03;3.10;;;5.50;99.90;;;4.52;100.00;99379.75;5053672;28;20287;-74
2024/01/02 03:51:04;;;;;;;7.47;2.20;;;5.70;99.90;;;4.53;100.00;99369.97;5053715;28;20240;-74
2024/01/02 03:53:33;;;;;;;10.83;3.17;;;5.50;99.90;;;4.55;100.00;99365.38;5053538;28;20226;-74
2024/01/02 03:56:05;;;;;;;10.70;2.70;;;5.60;99.90;;;4.56;100.00;99351.94;5053328;28;20557;-75
2024/01/02 03:58:33;;;;;;;10.67;3.27;;;5.60;99.90;;;4.57;100.00;99350.13;5053638;28;20225;-75
2024/01/02 04:01:04;;;;;;;15.40;3.30;;;5.60;99.90;;;4.57;100.00;99340.38;5053286;28;20638;-75
2024/01/02 04:03:32;;;;;;;12.53;3.10;;;5.60;99.90;;;4.57;100.00;99344.84;5053590;28;20187;-75
2024/01/02 04:06:00;;;;;;;12.00;3.30;;;5.60;99.90;;;4.57;100.00;99332.41;5053568;28;20206;-75
2024/01/02 04:08:30;;;;;;;10.93;3.13;;;5.70;99.90;;;4.56;100.00;99328.09;5053106;28;20229;-75
2024/01/02 04:10:58;;;;;;;13.20;3.60;;;5.60;99.90;;;4.56;100.00;99325.44;5053490;28;20237;-75
2024/01/02 04:13:30;;;;;;;12.27;3.33;;;5.60;99.90;;;4.56;100.00;99312.19;5053060;28;20696;-75
2024/01/02 04:15:59;;;;;;;13.67;3.10;;;5.60;99.90;;;4.56;100.00;99311.34;5053487;28;20346;-74
2024/01/02 04:18:27;;;;;;;9.67;2.90;;;5.60;99.90;;;4.56;100.00;99296.28;5053330;28;20811;-74
2024/01/02 04:20:57;;;;;;;10.13;2.83;;;5.60;99.90;;;4.59;100.00;99300.44;5053456;28;20260;-74
2024/01/02 04:23:25;;;;;;;9.10;2.67;;;5.60;99.90;;;4.59;100.00;99290.66;5053331;28;20209;-74
2024/01/02 04:25:54;;;;;;;10.60;3.30;;;5.60;99.90;;;4.60;100.00;99281.72;5053527;28;20268;-74
2024/01/02 04:28:22;;;;;;;10.80;3.20;;;5.70;99.90;;;4.63;100.00;99266.50;5053017;28;20317;-74
2024/01/02 04:30:50;;;;;;;13.30;2.80;;;5.70;99.90;;;4.64;100.00;99254.91;5053058;28;20629;-74
2024/01/02 04:33:19;;;;;;;10.37;3.00;;;5.80;99.90;;;4.67;100.00;99258.06;5053153;28;20275;-74
2024/01/02 04:35:47;;;;;;;10.93;3.10;;;5.70;99.90;;;4.69;100.00;99247.31;5053243;28;20248;-74
2024/01/02 04:38:16;;;;;;;8.13;2.57;;;5.70;99.90;;;4.70;100.00;99254.28;5052912;28;20704;-74
2024/01/02 04:40:44;;;;;;;13.07;2.70;;;5.80;99.90;;;4.70;100.00;99248.97;5052836;28;20698;-75
2024/01/02 04:43:13;;;;;;;7.60;2.90;;;5.70;99.90;;;4.69;100.00;99237.56;5053253;28;20202;-75
2024/01/02 04:45:42;;;;;;;8.17;2.73;;;5.80;99.90;;;4.70;100.00;99230.41;5052868;28;20232;-75
2024/01/02 04:48:10;;;;;;;10.33;2.90;;;5.90;99.90;;;4.70;100.00;99225.09;5053061;28;20279;-74
2024/01/02 04:50:39;;;;;;;11.80;3.03;;;5.70;99.90;;;4.70;100.00;99222.47;5052702;28;20755;-74
2024/01/02 04:53:07;;;;;;;10.77;2.77;;;5.70;99.90;;;4.70;100.00;99218.00;5052649;28;20228;-75
2024/01/02 04:55:37;;;;;;;10.07;2.57;;;5.80;99.90;;;4.70;100.00;99206.56;5052767;28;20296;-74
2024/01/02 04:58:05;;;;;;;8.13;2.70;;;5.70;99.90;;;4.71;100.00;99202.91;5053018;28;20646;-74
2024/01/02 05:00:35;;;;;;;12.77;2.87;;;5.80;99.90;;;4.74;100.00;99192.00;5053016;28;20210;-74
2024/01/02 05:03:04;;;;;;;10.07;2.97;;;5.80;99.90;;;4.74;100.00;99187.53;5052820;28;20214;-74
2024/01/02 05:05:33;;;;;;;8.77;2.47;;;5.70;99.90;;;4.75;100.00;99177.75;5056116;28;20206;-74
2024/01/02 05:08:03;;;;;;;10.70;2.50;;;5.80;99.90;;;4.77;100.00;99175.75;5056746;28;20230;-75
2024/01/02 05:10:31;;;;;;;9.23;2.73;;;5.80;99.90;;;4.80;100.00;99165.66;5056203;28;20209;-74
2024/01/02 05:12:59;;;;;;;12.53;3.23;;;5.80;99.90;;;4.79;100.00;99163.19;5056542;28;20590;-74
2024/01/02 05:15:27;;;;;;;7.93;2.27;;;5.80;99.90;;;4.79;100.00;99153.41;5057151;28;20289;-74
2024/01/02 05:17:57;;;;;;;7.03;2.63;;;5.80;99.90;;;4.81;100.00;99155.88;5056579;28;20263;-74
2024/01/02 05:20:26;;;;;;;7.23;2.30;;;5.80;99.90;;;4.83;100.00;99138.00;5056571;28;20259;-74
2024/01/02 05:22:54;;;;;;;9.17;3.17;;;6.00;99.90;;;4.85;100.00;99141.31;5056453;28;20214;-74
2024/01/02 05:25:37;;;;;;;5.90;1.93;;;5.80;99.90;;;4.84;100.00;99129.88;5056178;28;20648;-74
2024/01/02 05:28:06;;;;;;;3.77;2.20;;;5.90;99.90;;;4.86;100.00;99127.09;5056314;28;20308;-75
2024/01/02 05:30:34;;;;;;;7.47;2.30;;;5.90;99.90;;;4.85;100.00;99122.75;5056338;28;20300;-74
2024/01/02 05:33:05;;;;;;;6.57;2.10;;;5.90;99.90;;;4.87;100.00;99120.75;5056260;28;20209;-74
2024/01/02 05:35:33;;;;;;;6.00;2.27;;;5.90;99.90;;;4.87;100.00;99112.81;5056005;28;20645;-74
2024/01/02 05:38:03;;;;;;;7.33;2.17;;;5.90;99.90;;;4.86;100.00;99113.81;5056261;28;20241;-74
2024/01/02 05:40:31;;;;;;;6.93;2.30;;;5.90;99.90;;;4.86;100.00;99111.16;5056169;28;20233;-74
2024/01/02 05:43:00;;;;;;;5.43;2.27;;;5.90;99.90;;;4.85;100.00;99113.00;5056229;28;20289;-74
2024/01/02 05:45:28;;;;;;;6.47;1.80;;;5.90;99.90;;;4.87;100.00;99112.81;5056047;28;20206;-74
2024/01/02 05:47:56;;;;;;;4.03;2.00;;;5.90;99.90;;;4.86;100.00;99100.56;5056074;28;20321;-74
2024/01/02 05:50:29;;;;;;;7.13;2.33;;;5.80;99.90;;;4.86;100.00;99103.22;5055936;28;20293;-74
2024/01/02 05:52:58;;;;;;;4.73;2.17;;;5.90;99.90;;;4.86;100.00;99095.25;5055506;28;20217;-71
2024/01/02 05:55:26;;;;;;;5.33;2.17;;;5.90;99.90;;;4.86;100.00;99082.00;5055908;28;20202;-71
2024/01/02 05:57:54;;;;;;;6.73;2.50;;;5.90;99.90;;;4.87;100.00;99081.00;5055744;28;20765;-71
2024/01/02 06:00:22;;;;;;;10.13;2.40;;;5.90;99.90;;;4.85;100.00;99073.22;5055774;28;20206;-71
2024/01/02 06:02:52;;;;;;;8.53;2.50;;;5.90;99.90;;;4.84;100.00;99068.06;5055510;28;20218;-71
2024/01/02 06:05:21;;;;;;;5.30;2.30;;;5.90;99.90;;;4.83;100.00;99061.94;5055829;28;20198;-71
2024/01/02 06:07:52;;;;;;;7.97;2.73;;;5.80;99.90;;;4.83;100.00;99061.13;5055308;28;20712;-71
2024/01/02 06:10:20;;;;;;;6.50;2.00;;;5.80;99.90;;;4.86;100.00;99052.84;5055307;28;20686;-71
2024/01/02 06:12:49;;;;;;;3.83;2.27;;;5.80;99.90;;;4.87;100.00;99059.78;5055652;28;20202;-71
2024/01/02 06:15:17;;;;;;;5.53;2.20;;;5.90;99.90;;;4.85;100.00;99052.00;5054524;28;20241;-71
2024/01/02 06:17:46;;;;;;;4.40;2.00;;;5.90;99.90;;;4.88;100.00;99050.84;5055215;28;20221;-71
2024/01/02 06:20:15;;;;;;;4.40;2.30;;;5.90;99.90;;;4.89;100.00;99044.56;5055188;28;20585;-71
2024/01/02 06:22:43;;;;;;;2.87;1.80;;;5.90;99.90;;;4.91;100.00;99039.91;5055410;28;20206;-71
2024/01/02 06:25:14;;;;;;;4.03;1.83;;;5.90;99.90;;;4.93;100.00;99029.97;5055611;28;20292;-71
2024/01/02 06:27:43;;;;;;;6.20;1.40;;;5.90;99.90;;;4.93;100.00;99022.81;5055294;28;20234;-71
2024/01/02 06:30:12;;;;;;;3.73;1.60;;;6.00;99.90;;;4.94;100.00;99021.84;5055004;28;20579;-71
2024/01/02 06:32:40;;;;;;;2.67;1.30;;;5.90;99.90;;;4.94;100.00;99013.88;5055198;28;20245;-71
2024/01/02 06:35:09;;;;;;;1.60;1.40;;;5.90;99.90;;;4.95;100.00;98999.63;5055066;28;20317;-71
2024/01/02 06:37:40;;;;;;;3.47;1.47;;;5.90;99.90;;;4.95;100.00;98998.78;5054679;28;20236;-71
2024/01/02 06:40:10;;;;;;;3.33;1.23;;;6.00;99.90;;;4.96;100.00;98993.34;5054808;28;20759;-71
2024/01/02 06:42:39;;;;;;;4.13;1.30;;;5.90;99.90;;;4.95;100.00;98982.88;5054965;28;20759;-71
2024/01/02 06:45:09;;;;;;;2.17;1.30;;;6.00;99.90;;;4.94;100.00;98966.16;5054905;28;20293;-71
2024/01/02 06:47:38;;;;;;;3.73;1.20;;;5.90;99.90;;;4.94;100.00;98966.16;5054885;28;20298;-71
2024/01/02 06:50:07;;;;;;;2.37;1.23;;;6.00;99.90;;;4.96;100.00;98963.34;5054958;28;20207;-71
2024/01/02 06:52:35;;;;;;;2.07;1.30;;;6.00;99.90;;;4.96;100.00;98958.88;5054535;28;20210;-71
2024/01/02 06:55:04;;;;;;;2.37;1.30;;;6.00;99.90;;;4.95;100.00;98957.19;5054497;28;20226;-71
2024/01/02 06:57:33;;;;;;;2.00;1.53;;;5.90;99.90;;;4.94;100.00;98960.84;5054601;28;20774;-71
2024/01/02 07:00:05;;;;;;;2.30;1.40;;;5.90;99.90;;;4.94;100.00;98960.00;5054680;28;20288;-71
2024/01/02 07:02:33;;;;;;;2.10;1.33;;;6.00;99.90;;;4.96;100.00;98963.34;5054930;28;20225;-71
2024/01/02 07:05:03;;;;;;;2.87;1.10;;;6.00;99.90;;;4.97;100.00;98949.06;5054306;28;20198;-71
2024/01/02 07:07:31;;;;;;;1.33;1.20;;;6.00;99.90;;;4.96;100.00;98950.06;5054131;28;20665;-71
2024/01/02 07:09:59;;;;;;;1.57;1.30;;;6.00;99.90;;;4.94;100.00;98955.53;5054184;28;20566;-72
2024/01/02 07:12:30;;;;;;;2.80;1.30;;;5.90;99.90;;;4.95;100.00;98946.59;5054465;28;20214;-71
2024/01/02 07:14:58;;;;;;;1.50;1.20;;;6.00;99.90;;;4.95;100.00;98945.75;5054592;28;20329;-71
2024/01/02 07:17:28;;;;;;;4.27;1.70;;;6.00;99.90;;;4.95;100.00;98948.41;5054276;28;20226;-71
2024/01/02 07:19:58;;;;;;;2.60;1.20;;;6.00;99.90;;;4.96;100.00;98942.13;5055097;28;20240;-71
2024/01/02 07:22:27;;;;;;;1.63;1.20;;;5.90;99.90;;;4.96;100.00;98936.81;5054348;28;20205;-71
2024/01/02 07:24:55;;;;;;;2.60;1.63;;;6.00;99.90;;;4.95;100.00;98935.16;5054190;28;20289;-71
2024/01/02 07:27:23;;;;;;;1.40;1.00;;;6.00;99.90;;;4.94;100.00;98933.50;5053713;28;20719;-71
2024/01/02 07:29:52;;;;;;;1.60;1.13;;;6.00;99.90;;;4.94;100.00;98938.78;5054971;28;20690;-71
2024/01/02 07:32:27;;;;;;;3.10;1.07;;;5.90;99.90;;;4.93;100.00;98932.66;5054070;28;20296;-71
2024/01/02 07:34:55;;;;;;;1.43;1.10;;;5.90;99.90;;;4.93;100.00;98915.94;5053979;28;20206;-71
2024/01/02 07:37:24;;;;;;;1.23;0.97;;;5.90;99.90;;;4.93;100.00;98919.41;5054041;28;20261;-71
2024/01/02 07:39:53;;;;;;;1.27;1.00;;;5.90;99.90;;;4.91;100.00;98913.44;5053885;28;20582;-71
2024/01/02 07:42:22;;;;;;;2.77;1.27;;;5.90;99.90;;;4.90;100.00;98905.66;5054173;28;20210;-71
2024/01/02 07:44:53;;;;;;;1.77;1.20;;;6.00;99.90;;;4.90;100.00;98895.88;5053774;28;20625;-71
2024/01/02 07:47:21;;;;;;;2.20;1.30;;;5.90;99.90;;;4.89;100.00;98891.59;5053424;28;20230;-71
2024/01/02 07:49:50;;;;;;;1.20;1.07;;;6.00;99.90;;;4.89;100.00;98888.09;5053825;28;20578;-71
2024/01/02 07:52:19;;;;;;;1.60;1.20;;;5.90;99.90;;;4.85;100.00;98877.00;5053594;28;20241;-71
2024/01/02 07:54:47;;;;;;;1.90;1.10;;;5.90;99.90;;;4.83;100.00;98884.28;5053584;28;20325;-71
2024/01/02 07:57:16;;;;;;;1.90;0.90;;;6.00;99.90;;;4.80;100.00;98879.31;5053611;28;20209;-71
2024/01/02 07:59:49;;;;;;;1.03;0.93;;;5.80;99.90;;;4.78;100.00;98885.81;5053729;28;20237;-71
2024/01/02 08:02:20;;;;;;;1.13;0.90;;;5.70;99.90;;;4.75;100.00;98872.88;5053615;28;20195;-71
2024/01/02 08:04:51;;;;;;;1.83;1.00;;;5.70;99.90;;;4.74;100.00;98866.75;5054197;28;20206;-71
2024/01/02 08:07:19;;;;;;;1.30;0.90;;;5.70;99.90;;;4.73;100.00;98873.03;5053511;28;20198;-71
2024/01/02 08:09:48;;;;;;;0.97;0.90;;;5.70;99.90;;;4.75;100.00;98860.47;5053485;28;20296;-71
2024/01/02 08:12:16;;;;;;;0.97;0.80;;;5.70;99.90;;;4.78;100.00;98859.28;5053422;28;20233;-71
2024/01/02 08:14:44;;;;;;;3.80;1.00;;;5.70;99.90;;;4.76;100.00;98842.75;5053065;28;20221;-71
2024/01/02 08:17:20;;;;;;;2.87;1.00;;;5.80;99.90;;;4.71;100.00;98842.41;5053334;28;20668;-71
2024/01/02 08:19:48;;;;;;;0.60;0.60;;;5.70;99.90;;;4.70;100.00;98838.09;5053576;28;20240;-71
2024/01/02 08:22:19;;;;;;;2.27;1.00;;;5.70;99.90;;;4.67;100.00;98827.81;5053429;28;20256;-71
2024/01/02 08:24:47;;;;;;;1.53;0.80;;;5.70;99.90;;;4.66;100.00;98807.66;5053431;28;20190;-71
2024/01/02 08:27:15;;;;;;;0.87;0.87;;;5.60;99.90;;;4.62;100.00;98801.84;5052962;28;20237;-71
2024/01/02 08:29:44;;;;;;;1.00;0.70;;;5.50;99.90;;;4.63;100.00;98802.66;5053485;28;20206;-71
2024/01/02 08:32:14;;;;;;;1.07;0.80;;;5.60;99.90;;;4.58;100.00;98798.72;5054124;28;20198;-71
2024/01/02 08:34:43;;;;;;;1.10;0.80;;;5.50;99.90;;;4.59;100.00;98792.41;5053235;28;20232;-71
2024/01/02 08:37:14;;;;;;;0.93;0.60;;;5.50;99.90;;;4.58;100.00;98798.72;5053121;28;20206;-71
2024/01/02 08:39:44;;;;;;;1.00;0.90;;;5.50;99.90;;;4.55;100.00;98801.69;5055947;28;20293;-71
2024/01/02 08:42:12;;;;;;;0.70;0.70;;;5.50;99.90;;;4.57;100.00;98794.41;5057307;28;20301;-71
2024/01/02 08:44:40;;;;;;;0.93;0.80;;;5.50;99.90;;;4.56;100.00;98782.13;5057265;28;20237;-70
2024/01/02 08:47:09;;;;;;;1.40;0.80;;;5.50;99.90;;;4.55;100.00;98775.19;5056811;28;20679;-71
2024/01/02 08:49:39;;;;;;;1.17;0.80;;;5.50;99.90;;;4.56;100.00;98776.00;5056880;28;20210;-71
2024/01/02 08:52:07;;;;;;;1.60;0.70;;;5.50;99.90;;;4.55;100.00;98764.56;5056636;28;20698;-71
2024/01/02 08:54:37;;;;;;;1.33;0.70;;;5.50;99.90;;;4.54;100.00;98752.34;5057014;28;20297;-67
2024/01/02 08:57:07;;;;;;;1.10;0.90;;;5.50;99.90;;;4.57;100.00;98743.22;5056982;28;20237;-67
2024/01/02 08:59:35;;;;;;;0.93;0.63;;;5.50;99.90;;;4.56;100.00;98739.75;5056701;28;20850;-69
2024/01/02 09:02:03;;;;;;;1.07;0.60;;;5.50;99.90;;;4.50;100.00;98735.13;5056908;28;20213;-69
2024/01/02 09:04:31;;;;;;;0.67;0.60;;;5.50;99.90;;;4.54;100.00;98725.84;5056912;28;20255;-69
2024/01/02 09:07:00;;;;;;;1.03;0.80;;;5.60;99.90;;;4.56;100.00;98723.00;5056837;28;20289;-69
2024/01/02 09:09:28;;;;;;;0.80;0.80;;;5.50;99.90;;;4.56;100.00;98723.84;5056770;28;20279;-69
2024/01/02 09:11:56;;;;;;;0.80;0.80;;;5.60;99.90;;;4.60;100.00;98725.16;5056374;28;20245;-69
2024/01/02 09:14:26;;;;;;;0.60;0.60;;;5.60;99.90;;;4.62;100.00;98729.47;5056708;28;20581;-69
2024/01/02 09:16:54;;;;;;;0.87;0.80;;;5.60;99.90;;;4.62;100.00;98725.00;5056600;28;20287;-69
2024/01/02 09:19:22;;;;;;;1.90;1.20;;;5.60;99.90;;;4.63;100.00;98715.19;5056687;28;20312;-69
2024/01/02 09:21:50;;;;;;;1.03;0.93;;;5.60;99.90;;;4.64;100.00;98703.59;5056557;28;20210;-69
2024/01/02 09:24:21;;;;;;;1.73;0.70;;;5.60;99.90;;;4.62;100.00;98701.16;5056334;28;20228;-69
2024/01/02 09:26:55;;;;;;;0.77;0.70;;;5.60;99.90;;;4.64;100.00;98698.31;5056504;28;20281;-69
2024/01/02 09:29:24;;;;;;;1.10;0.80;;;5.60;99.90;;;4.65;100.00;98699.97;5056480;28;20256;-69
2024/01/02 09:31:53;;;;;;;0.80;0.80;;;5.60;99.90;;;4.64;100.00;98700.94;5056380;28;20260;-69
2024/01/02 09:34:21;;;;;;;0.90;0.90;;;5.60;99.90;;;4.64;100.00;98695.66;5056281;28;20296;-69
2024/01/02 09:36:52;;;;;;;1.20;1.10;;;5.60;99.90;;;4.63;100.00;98691.34;5055890;28;20330;-69
2024/01/02 09:39:21;;;;;;;1.07;0.97;;;5.60;99.90;;;4.63;100.00;98688.69;5056289;28;20230;-69
2024/01/02 09:42:19;;;;;;;0.97;0.97;;;5.50;99.90;;;4.63;100.00;98697.47;5055856;28;20633;-69
2024/01/02 09:45:09;;;;;;;1.03;0.83;;;5.60;99.90;;;4.65;100.00;98699.97;5056137;28;20190;-69
2024/01/02 09:48:05;;;;;;;0.77;0.67;;;5.60;99.90;;;4.66;100.00;98696.31;5056109;28;20258;-69
2024/01/02 09:50:45;;;;;;;1.10;1.00;;;5.60;99.90;;;4.66;100.00;98693.66;5053690;28;20714;-69
2024/01/02 09:53:49;;;;;;;2.53;0.90;;;5.60;99.90;;;4.68;100.00;98689.00;5055940;28;20218;-69
2024/01/02 09:56:27;;;;;;;0.93;0.70;;;5.70;99.90;;;4.67;100.00;98682.88;5053218;28;20226;-69
2024/01/02 09:59:08;;;;;;;0.73;0.73;;;5.60;99.90;;;4.71;100.00;98683.38;5055443;28;20240;-69
2024/01/02 10:01:54;;;;;;;1.17;0.93;;;5.70;99.90;;;4.70;100.00;98681.69;5055852;28;20641;-69
2024/01/02 10:04:48;;;;;;;1.43;0.90;;;5.70;99.90;;;4.71;100.00;98680.72;5056644;28;20225;-69
2024/01/02 10:07:56;;;;;;;0.60;0.60;;;5.60;99.90;;;4.68;100.00;98679.25;5055668;28;20191;-69
2024/01/02 10:10:35;;;;;;;0.70;0.70;;;5.60;99.90;;;4.70;100.00;98673.75;5055614;28;20208;-69
2024/01/02 10:13:23;;;;;;;1.20;1.00;;;5.70;99.90;;;4.71;100.00;98656.84;5055338;28;20270;-69
2024/01/02 10:16:07;;;;;;;1.27;0.80;;;5.70;99.90;;;4.71;100.00;98656.84;5055554;28;20248;-69
2024/01/02 10:19:02;;;;;;;1.03;1.03;;;5.70;99.90;;;4.71;100.00;98662.16;5055546;28;20226;-69
2024/01/02 10:21:44;;;;;;;1.13;1.00;;;5.70;99.90;;;4.74;100.00;98657.34;5055044;28;20675;-69
2024/01/02 10:24:26;;;;;;;1.90;0.80;;;5.70;99.90;;;4.75;100.00;98656.34;5055397;28;20194;-69
2024/01/02 10:27:09;;;;;;;0.97;0.80;;;5.70;99.90;;;4.77;100.00;98646.38;5055335;28;20190;-69
2024/01/02 10:29:59;;;;;;;3.17;1.00;;;5.80;99.90;;;4.79;100.00;98643.56;5055318;28;20190;-69
2024/01/02 10:32:42;;;;;;;0.90;0.70;;;5.80;99.90;;;4.78;100.00;98642.75;5055815;28;20206;-69
2024/01/02 10:35:21;;;;;;;0.77;0.77;;;5.70;99.90;;;4.81;100.00;98636.25;5055225;28;20212;-69